Japan Airlines Virtual Airport Information Service

Guangzhou Baiyun International Airport

ICAO: ZGGG Country: China
Latitude: 23.3924 Longitude: 113.299
Latest Arrival : CSN3070 (VVNB-ZGGG) Latest Departure : CSN3550 (ZGGG-ZSPD)


WX CaptureLIVE
Data provided by noaa.gov | Fetched at 14:31:19

METAR : ZGGG 231400Z 17005MPS 9000 SCT053 29/22 Q1007 NOSIG

TAF : ZGGG 230910Z 2312/2412 17003MPS 8000 SCT040 TX32/2407Z TN24/2322Z


Runway Data for ZGGG
Data provided by openaviationdata.com

Runway ID Mag Var Hdg Length Elevation Surface ILS Freq ILS Id ILS Slope
02L -2 15° 11848 ft 50 ft Concrete 109.3 IOO 3
02R -2 15° 12504 ft 50 ft Concrete 110.9 IBB 3
20L -2 195° 12504 ft 50 ft Concrete 110.3 IAA 3
20R -2 195° 11848 ft 50 ft Concrete 111.5 IPP 3

Guangzhou Baiyun International Airport, China
Use only for reference purposes



Not for navigational purposes.